Pioche, Nevada Weather observations

Data are for observation ending at time listed.
 Day   Time    Ave.   Ave.  Ave.  Vector   Max.   Stn.    Total    Solar   Ave.  
  of    of     Air    Rel.  Wind   Wind    Wind   Baro.  Precip.   Rad.    Soil  
Year   Day     Temp.  Hum.  Speed  Dir.    Gust   Pres.                    Temp. 
2026   (PST)    F      %     mph   deg.    mph     mb.     in.     W/m2     F   
------------------------------------------------------------------------------
 125    2:20   46.3    43    3.5   134      7.0   813.7    0.00       0    59.7
 125    2:30   46.3    43    4.9   125      9.3   813.7    0.00       0    59.7
 125    2:40   46.8    42    6.1   124      9.6   813.7    0.00       0    59.7
 125    2:50   46.4    43    5.8   127      9.0   813.7    0.00       0    59.6
 125    3:00   46.1    45    5.8   129      9.1   813.8    0.00       0    59.6
 125    3:10   45.8    46    4.7   130      9.1   813.7    0.00       0    59.5
 125    3:20   45.5    46    4.7   130      8.7   813.7    0.00       0    59.5
 125    3:30   45.2    47    3.1   128      6.6   813.8    0.00       0    59.5
 125    3:40   41.7    52    1.9   313      4.1   813.9    0.00       0    59.4
 125    3:50   40.1    59    0.1   270      2.8   813.8    0.00       0    59.4
 125    4:00   41.4    55    2.8   135      5.9   813.8    0.00       0    59.4
 125    4:10   43.4    51    5.4   141      8.0   813.8    0.00       0    59.3
 125    4:20   43.3    51    4.1   140      7.8   813.8    0.00       0    59.3
 125    4:30   43.1    52    2.0   131      5.2   813.8    0.00       0    59.3
 125    4:40   41.6    54    0.7   329      2.9   813.9    0.00       3    59.2
 125    4:50   40.7    56    0.9    93      3.0   813.9    0.00       9    59.1
 125    5:00   41.5    55    1.5   101      4.8   814.0    0.00      13    59.1
 125    5:10   42.4    54    1.7    97      3.7   814.0    0.00      20    59.1
 125    5:20   41.6    55    0.5    82      1.8   814.1    0.00      27    59.0
 125    5:30   41.7    55    0.5    11      1.8   814.2    0.00      33    59.0
 125    5:40   41.7    56    1.3    72      4.2   814.3    0.00      36    58.9
 125    5:50   41.8    55    0.6    76      2.3   814.3    0.00      42    58.9
 125    6:00   42.6    55    2.2    68      3.9   814.4    0.00     173    58.9
 125    6:10   43.8    53    3.1    77      6.3   814.4    0.00     161    58.8
 125    6:20   45.3    51    3.1    82      5.5   814.4    0.00     155    58.8
 125    6:30   46.8    50    3.3    97      5.6   814.4    0.00     123    58.7
 125    6:40   47.8    48    5.0   113      7.7   814.5    0.00     232    58.7
 125    6:50   48.6    47    5.5   121      8.8   814.5    0.00     396    58.7
 125    7:00   48.7    46    4.6   128      8.7   814.5    0.00     282    58.6
 125    7:10   49.0    46    4.3   130      8.6   814.5    0.00     519    58.6
 125    7:20   50.5    44    4.9   131      9.5   814.6    0.00     541    58.6
 125    7:30   50.5    43    4.8   136      8.9   814.6    0.00     564    58.6
 125    7:40   51.0    42    6.0   131     10.5   814.5    0.00     632    58.5
 125    7:50   51.6    41    6.0   144     11.0   814.6    0.00     665    58.5
 125    8:00   52.1    39    5.7   132     10.4   814.6    0.00     703    58.5
 125    8:10   52.3    39    5.7   143     10.6   814.8    0.00     735    58.5
 125    8:20   52.7    38    5.9   140     11.2   814.9    0.00     768    58.5
 125    8:30   53.2    37    6.2   156     12.8   814.8    0.00     802    58.5
 125    8:40   52.4    37    7.3   130     12.8   814.8    0.00     834    58.5
 125    8:50   52.3    37    6.4   144     11.2   814.8    0.00     864    58.5
 125    9:00   52.9    36    8.2   123     13.0   814.7    0.00     892    58.5
 125    9:10   53.1    35    7.0   127     12.7   814.7    0.00     920    58.4
 125    9:20   53.6    35    6.3   144     13.4   814.7    0.00     946    58.4
 125    9:30   54.7    35    6.0   120     11.9   814.7    0.00     969    58.4
 125    9:40   54.9    33    6.2   112     11.4   814.9    0.00     992    58.4
 125    9:50   54.9    33    5.3   132     10.1   814.8    0.00    1013    58.4
 125   10:00   56.2    31    5.3   145     12.2   814.9    0.00    1033    58.4
 125   10:10   56.0    31    6.4   132     12.2   814.9    0.00    1053    58.4
 125   10:20   55.9    29    4.6   113     13.3   814.8    0.00    1069    58.4
 125   10:30   56.9    29    5.9   101     13.7   814.8    0.00    1083    58.3
 125   10:40   58.1    28    4.5   141     10.5   814.7    0.00    1095    58.3
 125   10:50   58.7    28    6.0   107     12.3   814.6    0.00    1103    58.3
 125   11:00   58.0    27    5.8   110     11.2   814.5    0.00    1113    58.3
 125   11:10   58.3    26    2.7    93      7.3   814.4    0.00    1117    58.3
 125   11:20   59.2    25    3.8   145     10.4   814.5    0.00    1122    58.3
 125   11:30   59.9    24    5.1   108     11.1   814.4    0.00    1129    58.4
 125   11:40   59.8    24    4.3   145      8.0   814.4    0.00    1130    58.4
 125   11:50   60.0    23    4.9    81     11.3   814.3    0.00    1133    58.4
 125   12:00   61.2    22    2.6    75      9.6   814.3    0.00    1139    58.4
 125   12:10   60.9    22    3.3   104     10.5   814.3    0.00     954    58.5
 125   12:20   61.0    22    4.0   112      9.6   814.3    0.00     941    58.5
 125   12:30   60.4    23    6.0   131     11.8   814.2    0.00     654    58.5
 125   12:40   60.9    23    4.0    97      8.3   814.1    0.00    1207    58.6
 125   12:50   63.1    21    2.2   284      6.1   814.0    0.00    1298    58.7
 125   13:00   62.4    22    4.0   252     10.0   814.1    0.00     467    58.7
 125   13:10   60.3    24    3.6   234     10.0   814.1    0.00     291    58.7
 125   13:20   60.6    24    3.3   236     10.4   814.0    0.00     775    58.8
 125   13:30   62.2    23    3.6   233      8.5   813.9    0.00    1057    58.9
 125   13:40   62.0    23    4.3   151     10.6   813.9    0.00     959    58.9
 125   13:50   62.1    23    6.2   140     12.3   813.8    0.00     830    59.0
 125   14:00   61.6    24    4.6   191     10.0   813.7    0.00     503    59.0
 125   14:10   62.3    23    3.8   188     10.1   813.6    0.00     804    59.1
 125   14:20   62.5    24    6.4   190     12.1   813.5    0.00     803    59.1
 125   14:30   62.4    22    3.8   201      8.3   813.4    0.00     692    59.2
 125   14:40   62.1    23    4.3   198     12.1   813.3    0.00     480    59.3
 125   14:50   61.9    22    3.6   173      8.3   813.2    0.00     187    59.3
 125   15:00   62.2    21    2.1   204      6.6   813.1    0.00     194    59.4
 125   15:10   61.9    21    6.1   137     11.6   813.0    0.00     199    59.5
 125   15:20   62.1    21    4.0   157     10.0   812.9    0.00     231    59.5
 125   15:30   61.9    21    3.5   130      9.4   812.9    0.00     240    59.6
 125   15:40   62.3    21    5.4   165     12.1   812.9    0.00     225    59.6
 125   15:50   61.9    20    8.7   281     14.3   812.8    0.00     217    59.6
 125   16:00   61.8    20    3.1   290      8.0   812.9    0.00     207    59.7
 125   16:10   61.8    20    6.1   277     15.5   813.0    0.00     192    59.7
 125   16:20   61.8    20    3.7   274      6.9   813.0    0.00     174    59.8
 125   16:30   61.6    19    7.3   273     12.0   813.1    0.00     144    59.8
 125   16:40   61.0    19    5.4   266     13.2   813.2    0.00     115    59.9
 125   16:50   60.3    22    5.4   142     11.0   813.3    0.00     120    59.9
 125   17:00   60.7    21    3.1   286     11.3   813.3    0.00     108    60.0
 125   17:10   61.1    21    3.8   301     11.8   813.4    0.00      80    60.0
 125   17:20   59.6    26    5.3   320     14.2   813.5    0.00      75    60.0
 125   17:30   59.1    28    2.1   344      6.6   813.7    0.00      64    60.0
 125   17:40   58.9    27    1.1   348      6.4   813.7    0.00      47    60.1
 125   17:50   59.0    27    0.8    54      3.0   813.7    0.00      26    60.1
 125   18:00   58.6    28    1.5    80      3.6   813.8    0.00      15    60.2
 125   18:10   58.5    29    1.2    88      2.9   814.0    0.00      14    60.2
 125   18:20   58.3    29    3.0   300     12.3   814.2    0.00      11    60.2
 125   18:30   56.7    35   10.8   291     17.3   814.5    0.00       4    60.1
 125   18:40   56.2    36    9.0   291     16.3   814.5    0.00       0    60.1
 125   18:50   56.1    38    8.7   292     13.4   814.7    0.00       0    60.2
 125   19:00   55.8    38    6.8   282     10.2   814.8    0.00       0    60.2
 125   19:10   55.5    38    6.4   284      9.3   814.9    0.00       0    60.2
 125   19:20   55.1    38    7.6   282     12.3   815.1    0.00       0    60.2
 125   19:30   55.1    38    7.4   286     10.4   815.1    0.00       0    60.2
 125   19:40   55.0    38    6.1   289      9.3   815.3    0.00       0    60.2
 125   19:50   54.9    38    5.8   288      8.4   815.4    0.00       0    60.2
 125   20:00   54.8    39    3.9   276      6.9   815.5    0.00       0    60.2
 125   20:10   54.3    40    4.0   269      8.2   815.6    0.00       0    60.2
 125   20:20   54.1    40    3.4   267      5.5   815.7    0.00       0    60.1
 125   20:30   53.8    41    4.4   268      7.7   815.8    0.00       0    60.1
 125   20:40   53.5    43    5.7   269      8.4   815.9    0.00       0    60.1
 125   20:50   53.2    44    5.7   275      8.6   816.0    0.00       0    60.0
 125   21:00   53.3    45    5.1   274      7.0   816.1    0.00       0    60.0
 125   21:10   53.3    45    5.1   272      7.8   816.2    0.00       0    60.0
 125   21:20   53.1    46    6.0   272      9.7   816.2    0.00       0    60.0
 125   21:30   52.8    48    6.0   273      9.9   816.2    0.00       0    60.0
 125   21:40   52.6    49    6.5   272     10.0   816.2    0.00       0    60.0
 125   21:50   52.4    49    7.1   276     11.2   816.3    0.00       0    59.9
 125   22:00   52.0    50    7.6   281     12.3   816.3    0.00       0    59.9
 125   22:10   51.4    52    8.2   278     13.4   816.2    0.00       0    59.8
 125   22:20   51.0    54    6.2   270      9.6   816.2    0.00       0    59.8
 125   22:30   50.8    55    6.2   269      9.9   816.4    0.00       0    59.8
 125   22:40   50.7    56    4.3   265      8.5   816.4    0.00       0    59.8
 125   22:50   50.8    56    2.9   260      5.8   816.4    0.00       0    59.8
 125   23:00   50.8    55    4.4   267      9.8   816.5    0.00       0    59.8
 125   23:10   50.5    56    3.5   264      6.9   816.5    0.00       0    59.7
 125   23:20   50.3    57    2.6   244      5.1   816.6    0.00       0    59.7
 125   23:30   49.2    60    1.7   214      4.3   816.6    0.00       0    59.7
 125   23:40   49.3    60    3.5   265      6.9   816.7    0.00       0    59.7
 125   23:50   48.9    60    2.4   233      6.3   816.7    0.00       0    59.7
 126    0:00   48.9    61    2.3   252      5.5   816.7    0.00       0    59.6
 126    0:10   48.8    61    2.3   248      4.8   816.7    0.00       0    59.6
 126    0:20   48.5    62    0.3   174      2.9   816.7    0.00       0    59.6
 126    0:30   48.1    62    0.1   175      0.9   816.7    0.00       0    59.6
 126    0:40   47.0    64    0.2   204      1.0   816.8    0.00       0    59.5
 126    0:50   46.6    64    0.7   173      1.7   816.7    0.00       0    59.5
 126    1:00   46.4    63    0.7   245      2.3   816.7    0.00       0    59.5
 126    1:10   45.8    64    0.5   254      2.3   816.7    0.00       0    59.5
 126    1:20   45.4    66    0.9   230      2.0   816.8    0.00       0    59.5
 126    1:30   45.9    65    1.1   206      2.5   816.8    0.00       0    59.4
 126    1:40   46.0    65    0.3   187      1.5   816.9    0.00       0    59.4
 126    1:50   45.8    66    0.7   147      1.8   817.0    0.00       0    59.3
 126    2:00   44.9    67    1.2   264      4.2   817.1    0.00       0    59.3
 126    2:10   44.7    67    2.2   266      4.5   817.4    0.00       0    59.3

Return to Pioche, Nevada graphs page.


Western Regional Climate Center,wrcc@dri.edu